createdAt,value
2019-03-01T00:01:10.161Z,12.80
2019-03-01T00:03:37.718Z,14.43
2019-03-01T00:09:31.702Z,41.50
2019-03-01T00:12:17.771Z,13.27
2019-03-01T00:15:12.035Z,10.60
2019-03-01T00:18:00.080Z,40.10
2019-03-01T00:20:36.132Z,21.13
2019-03-01T00:26:07.157Z,16.65
2019-03-01T00:28:38.208Z,22.27
2019-03-01T00:31:18.293Z,22.83
2019-03-01T00:33:49.090Z,15.10
2019-03-01T00:36:38.203Z,20.20
2019-03-01T00:39:25.463Z,14.10
2019-03-01T00:41:53.811Z,11.00
2019-03-01T00:44:30.895Z,17.30
2019-03-01T00:46:58.455Z,13.77
2019-03-01T00:49:25.992Z,30.83
2019-03-01T00:51:53.553Z,16.07
2019-03-01T00:54:21.087Z,8.33
2019-03-01T00:56:48.619Z,11.87
2019-03-01T00:59:16.186Z,11.83
2019-03-01T01:01:43.750Z,31.13
2019-03-01T01:04:11.283Z,19.83
2019-03-01T01:06:38.819Z,14.37
2019-03-01T01:09:06.462Z,32.30
2019-03-01T01:11:33.999Z,12.20
2019-03-01T01:14:01.560Z,13.60
2019-03-01T01:16:29.092Z,12.60
2019-03-01T01:18:56.679Z,13.80
2019-03-01T01:21:24.214Z,29.67
2019-03-01T01:23:52.544Z,10.30
2019-03-01T01:26:20.076Z,15.33
2019-03-01T01:28:47.634Z,8.30
2019-03-01T01:31:15.193Z,12.80
2019-03-01T01:33:42.754Z,11.83
2019-03-01T01:36:10.287Z,11.97
2019-03-01T01:38:37.847Z,16.27
2019-03-01T01:41:05.391Z,9.87
2019-03-01T01:43:33.716Z,14.20
2019-03-01T01:46:01.281Z,16.90
2019-03-01T01:48:28.833Z,11.83
2019-03-01T01:50:56.372Z,16.57
2019-03-01T01:53:24.911Z,14.93
2019-03-01T01:55:52.462Z,13.53
2019-03-01T01:58:19.983Z,11.97
2019-03-01T02:00:47.541Z,22.13
2019-03-01T02:03:15.071Z,10.00
2019-03-01T02:05:42.622Z,18.67
2019-03-01T02:08:10.146Z,17.57
2019-03-01T02:10:37.703Z,13.10
2019-03-01T02:13:05.227Z,16.70
2019-03-01T02:15:32.757Z,12.47
2019-03-01T02:18:00.310Z,31.13
2019-03-01T02:20:27.851Z,44.17
2019-03-01T02:22:55.407Z,25.43
2019-03-01T02:25:22.930Z,19.27
2019-03-01T02:27:50.499Z,13.80
2019-03-01T02:30:20.892Z,15.37
2019-03-01T02:32:48.453Z,12.10
2019-03-01T02:35:15.991Z,16.90
2019-03-01T02:37:43.547Z,10.80
2019-03-01T02:40:11.722Z,16.33
2019-03-01T02:42:39.261Z,12.67
2019-03-01T02:45:07.767Z,18.77
2019-03-01T02:47:35.325Z,12.33
2019-03-01T02:50:02.852Z,7.53
2019-03-01T02:52:30.404Z,6.73
2019-03-01T02:54:57.966Z,11.30
2019-03-01T02:57:25.496Z,10.30
2019-03-01T02:59:53.071Z,12.27
2019-03-01T03:02:20.604Z,16.00
2019-03-01T03:04:48.164Z,9.00
2019-03-01T03:07:18.139Z,35.37
2019-03-01T03:09:45.695Z,4.23
2019-03-01T03:12:13.232Z,34.30
2019-03-01T03:14:40.787Z,14.83
2019-03-01T03:22:51.547Z,14.77
2019-03-01T03:25:19.112Z,18.43
2019-03-01T03:27:46.639Z,4.13
2019-03-01T03:30:15.128Z,2.13
2019-03-01T03:32:42.701Z,12.53
2019-03-01T03:35:10.241Z,23.80
2019-03-01T03:37:37.795Z,4.90
2019-03-01T03:40:06.083Z,6.90
2019-03-01T03:42:34.639Z,9.90
2019-03-01T03:45:02.167Z,8.57
2019-03-01T03:47:29.736Z,6.50
2019-03-01T03:49:57.263Z,4.00
2019-03-01T03:52:24.818Z,7.47
2019-03-01T03:54:52.350Z,5.80
2019-03-01T03:57:19.907Z,6.00
2019-03-01T03:59:47.444Z,4.70
2019-03-01T04:02:14.986Z,8.77
2019-03-01T04:04:42.547Z,3.73
2019-03-01T04:07:10.108Z,5.60
2019-03-01T04:09:37.661Z,6.47
2019-03-01T04:12:05.195Z,4.20
2019-03-01T04:14:32.793Z,8.73
2019-03-01T04:17:00.331Z,7.40
2019-03-01T04:19:27.875Z,5.73
2019-03-01T04:21:55.405Z,5.83
2019-03-01T04:24:22.960Z,4.33
2019-03-01T04:26:50.494Z,4.53
2019-03-01T04:29:18.048Z,11.53
2019-03-01T04:31:46.352Z,7.13
2019-03-01T04:34:13.878Z,7.10
2019-03-01T04:36:41.426Z,4.83
2019-03-01T04:39:08.950Z,10.53
2019-03-01T04:41:36.503Z,5.70
2019-03-01T04:44:04.032Z,4.77
2019-03-01T04:46:32.347Z,6.23
2019-03-01T04:48:59.871Z,7.57
2019-03-01T04:51:27.422Z,5.87
2019-03-01T04:53:54.949Z,8.03
2019-03-01T04:56:22.511Z,10.17
2019-03-01T04:58:50.046Z,9.00
2019-03-01T05:01:17.781Z,28.37
2019-03-01T05:03:45.336Z,11.33
2019-03-01T05:06:12.867Z,10.80
2019-03-01T05:08:40.423Z,9.57
2019-03-01T05:11:08.718Z,17.53
2019-03-01T05:13:36.243Z,9.50
2019-03-01T05:16:04.563Z,19.50
2019-03-01T05:18:32.112Z,9.40
2019-03-01T05:20:59.744Z,18.13
2019-03-01T05:23:27.299Z,25.73
2019-03-01T05:25:55.618Z,12.80
2019-03-01T05:28:23.914Z,8.43
2019-03-01T05:30:51.471Z,14.27
2019-03-01T05:33:19.003Z,13.83
2019-03-01T05:35:46.559Z,10.83
2019-03-01T05:38:21.502Z,8.30
2019-03-01T05:40:41.695Z,10.00
2019-03-01T05:43:09.223Z,17.93
2019-03-01T05:45:36.770Z,6.83
2019-03-01T05:48:04.295Z,8.87
2019-03-01T05:50:32.628Z,7.00
2019-03-01T05:53:00.152Z,6.87
2019-03-01T05:55:27.719Z,8.47
2019-03-01T05:58:16.069Z,6.53
2019-03-01T06:00:34.713Z,7.90
2019-03-01T06:03:08.779Z,5.83
2019-03-01T06:05:36.331Z,9.00
2019-03-01T06:08:05.786Z,18.90
2019-03-01T06:10:35.886Z,16.33
2019-03-01T06:16:04.810Z,21.37
2019-03-01T06:18:56.131Z,15.67
2019-03-01T06:24:46.219Z,16.08
2019-03-01T06:27:36.384Z,19.23
2019-03-01T06:36:30.150Z,8.90
2019-03-01T06:39:23.917Z,11.67
2019-03-01T06:41:52.215Z,5.50
2019-03-01T06:47:41.743Z,6.60
2019-03-01T06:50:26.739Z,5.70
2019-03-01T06:52:54.267Z,5.00
2019-03-01T06:55:40.489Z,3.43
2019-03-01T06:58:08.023Z,6.50
2019-03-01T07:00:36.217Z,8.03
2019-03-01T07:03:03.771Z,6.73
2019-03-01T07:05:31.298Z,5.07
2019-03-01T07:07:58.847Z,2.10
2019-03-01T07:10:26.382Z,2.90
2019-03-01T07:12:54.903Z,4.27
2019-03-01T07:15:22.435Z,7.50
2019-03-01T07:17:49.982Z,5.63
2019-03-01T07:20:17.508Z,2.63
2019-03-01T07:22:46.063Z,6.90
2019-03-01T07:25:13.599Z,6.03
2019-03-01T07:27:41.154Z,6.20
2019-03-01T07:30:08.687Z,3.63
2019-03-01T07:32:36.250Z,4.43
2019-03-01T07:35:03.810Z,5.00
2019-03-01T07:37:32.120Z,11.97
2019-03-01T07:39:59.683Z,39.00
2019-03-01T07:42:27.211Z,8.07
2019-03-01T07:44:54.768Z,9.50
2019-03-01T07:47:22.297Z,9.73
2019-03-01T07:49:49.843Z,6.97
2019-03-01T07:52:17.376Z,5.50
2019-03-01T07:54:44.940Z,12.73
2019-03-01T07:57:14.769Z,8.77
2019-03-01T07:59:40.063Z,8.97
2019-03-01T08:02:07.599Z,12.30
2019-03-01T08:04:35.158Z,5.87
2019-03-01T08:07:02.727Z,7.57
2019-03-01T08:09:30.261Z,6.50
2019-03-01T08:11:57.815Z,8.40
2019-03-01T08:14:28.079Z,7.30
2019-03-01T08:16:56.068Z,7.10
2019-03-01T08:19:23.457Z,6.60
2019-03-01T08:21:49.893Z,5.97
2019-03-01T08:24:16.803Z,6.30
2019-03-01T08:26:44.360Z,8.53
2019-03-01T08:29:12.651Z,6.93
2019-03-01T08:31:40.203Z,4.10
2019-03-01T08:34:07.726Z,5.47
2019-03-01T08:36:38.701Z,3.93
2019-03-01T08:39:04.900Z,3.60
2019-03-01T08:41:30.447Z,4.10
2019-03-01T08:43:58.011Z,6.23
2019-03-01T08:46:26.907Z,3.13
2019-03-01T08:48:53.130Z,3.13
2019-03-01T08:51:22.548Z,3.87
2019-03-01T08:53:50.775Z,3.80
2019-03-01T08:56:15.830Z,2.00
2019-03-01T08:58:43.388Z,3.37
2019-03-01T09:01:11.747Z,2.33
2019-03-01T09:03:55.043Z,2.80
2019-03-01T09:06:22.574Z,2.80
2019-03-01T09:08:50.131Z,1.73
2019-03-01T09:11:18.461Z,1.90
2019-03-01T09:13:46.016Z,2.90
2019-03-01T09:16:13.548Z,5.30
2019-03-01T09:18:42.091Z,3.10
2019-03-01T09:21:12.239Z,3.03
2019-03-01T09:23:37.223Z,3.20
2019-03-01T09:26:04.785Z,5.77
2019-03-01T09:28:38.591Z,2.73
2019-03-01T09:31:00.683Z,4.77
2019-03-01T09:33:28.229Z,2.17
2019-03-01T09:35:56.299Z,3.90
2019-03-01T09:38:23.847Z,2.70
2019-03-01T09:40:51.375Z,4.13
2019-03-01T09:43:19.899Z,1.80
2019-03-01T09:45:48.766Z,3.03
2019-03-01T09:48:15.059Z,2.70
2019-03-01T09:50:42.588Z,3.70
2019-03-01T09:53:10.135Z,4.70
2019-03-01T09:55:38.561Z,2.80
2019-03-01T09:58:05.260Z,2.93
2019-03-01T10:00:32.783Z,3.40
2019-03-01T10:03:00.347Z,3.10
2019-03-01T10:05:27.878Z,3.20
2019-03-01T10:07:55.407Z,4.40
2019-03-01T10:10:22.972Z,1.83
2019-03-01T10:12:51.275Z,4.27
2019-03-01T10:15:18.825Z,3.00
2019-03-01T10:17:46.353Z,3.70
2019-03-01T10:20:13.911Z,4.43
2019-03-01T10:22:41.435Z,3.53
2019-03-01T10:25:09.759Z,4.70
2019-03-01T10:27:37.286Z,3.80
2019-03-01T10:30:04.838Z,2.40
2019-03-01T10:32:32.368Z,2.63
2019-03-01T10:34:59.918Z,3.90
2019-03-01T10:37:27.440Z,2.70
2019-03-01T10:39:55.959Z,6.40
2019-03-01T10:42:23.491Z,3.87
2019-03-01T10:44:51.047Z,4.53
2019-03-01T10:47:18.610Z,3.00
2019-03-01T10:49:46.163Z,2.53
2019-03-01T10:52:13.691Z,2.43
2019-03-01T10:54:41.982Z,2.43
2019-03-01T10:57:09.531Z,4.43
2019-03-01T10:59:37.828Z,3.13
2019-03-01T11:02:05.379Z,3.07
2019-03-01T11:04:33.923Z,1.83
2019-03-01T11:07:01.456Z,2.40
2019-03-01T11:09:29.011Z,2.00
2019-03-01T11:11:56.562Z,4.63
2019-03-01T11:14:24.115Z,3.30
2019-03-01T11:16:51.652Z,3.63
2019-03-01T11:19:19.207Z,3.63
2019-03-01T11:21:46.738Z,2.30
2019-03-01T11:24:14.309Z,2.40
2019-03-01T11:26:41.963Z,1.80
2019-03-01T11:29:09.522Z,4.33
2019-03-01T11:31:37.828Z,2.40
2019-03-01T11:34:05.377Z,2.10
2019-03-01T11:36:32.957Z,2.37
2019-03-01T11:39:00.515Z,2.17
2019-03-01T11:41:28.047Z,4.00
2019-03-01T11:43:55.611Z,3.40
2019-03-01T11:46:23.141Z,4.87
2019-03-01T11:48:50.705Z,6.27
2019-03-01T11:51:18.380Z,5.73
2019-03-01T11:53:45.936Z,3.53
2019-03-01T11:56:13.463Z,4.80
2019-03-01T11:58:41.023Z,4.00
2019-03-01T12:01:16.958Z,2.20
2019-03-01T12:03:36.151Z,3.40
2019-03-01T12:06:04.704Z,3.53
2019-03-01T12:08:32.267Z,2.90
2019-03-01T12:10:59.799Z,2.23
2019-03-01T12:13:27.327Z,2.77
2019-03-01T12:15:54.947Z,2.87
2019-03-01T12:18:22.474Z,3.70
2019-03-01T12:20:50.026Z,2.03
2019-03-01T12:23:17.559Z,2.10
2019-03-01T12:25:45.095Z,2.60
2019-03-01T12:28:12.652Z,2.50
2019-03-01T12:30:40.209Z,2.97
2019-03-01T12:33:07.786Z,2.87
2019-03-01T12:35:35.316Z,3.70
2019-03-01T12:38:02.871Z,2.47
2019-03-01T12:40:31.191Z,3.20
2019-03-01T12:42:58.743Z,4.40
2019-03-01T12:45:26.496Z,17.47
2019-03-01T12:47:54.054Z,21.63
2019-03-01T12:50:21.583Z,5.13
2019-03-01T12:52:49.144Z,4.23
2019-03-01T12:55:21.164Z,11.87
2019-03-01T12:57:48.727Z,4.77
2019-03-01T13:00:16.932Z,5.37
2019-03-01T13:02:44.503Z,4.70
2019-03-01T13:05:12.710Z,5.72
2019-03-01T13:07:40.267Z,9.03
2019-03-01T13:10:08.523Z,6.90
2019-03-01T13:12:36.051Z,6.90
2019-03-01T13:15:03.603Z,15.70
2019-03-01T13:17:33.720Z,12.30
2019-03-01T13:20:01.143Z,5.53
2019-03-01T13:22:27.971Z,10.07
2019-03-01T13:24:54.673Z,15.10
2019-03-01T13:27:22.207Z,15.47
2019-03-01T13:29:49.783Z,5.27
2019-03-01T13:32:19.950Z,9.50
2019-03-01T13:34:45.810Z,6.90
2019-03-01T13:37:19.373Z,7.78
2019-03-01T13:39:40.172Z,9.37
2019-03-01T13:42:10.308Z,4.17
2019-03-01T13:44:36.100Z,6.23
2019-03-01T13:47:05.292Z,5.00
2019-03-01T13:49:31.357Z,6.90
2019-03-01T13:51:58.059Z,4.90
2019-03-01T13:54:25.588Z,9.67
2019-03-01T13:56:53.155Z,7.90
2019-03-01T13:59:20.687Z,10.73
2019-03-01T14:01:48.215Z,6.80
2019-03-01T14:04:16.755Z,7.40
2019-03-01T14:06:44.310Z,10.70
2019-03-01T14:09:11.881Z,13.03
2019-03-01T14:11:39.423Z,8.03
2019-03-01T14:14:08.903Z,8.43
2019-03-01T14:16:36.430Z,6.73
2019-03-01T14:19:04.752Z,7.27
2019-03-01T14:21:33.053Z,8.20
2019-03-01T14:24:00.859Z,5.40
2019-03-01T14:26:28.388Z,7.97
2019-03-01T14:28:56.699Z,5.00
2019-03-01T14:31:24.223Z,8.60
2019-03-01T14:33:52.519Z,7.70
2019-03-01T14:36:20.066Z,6.23
2019-03-01T14:38:47.599Z,5.57
2019-03-01T14:41:15.150Z,5.80
2019-03-01T14:43:42.708Z,6.40
2019-03-01T14:46:10.359Z,5.47
2019-03-01T14:51:11.926Z,6.03
2019-03-01T14:53:39.399Z,4.70
2019-03-01T14:56:08.840Z,6.10
2019-03-01T14:58:38.247Z,5.30
2019-03-01T15:01:15.303Z,5.33
2019-03-01T15:03:42.839Z,5.93
2019-03-01T15:06:11.391Z,8.97
2019-03-01T15:08:40.528Z,7.40
2019-03-01T15:11:08.016Z,5.20
2019-03-01T15:13:35.827Z,4.90
2019-03-01T15:16:04.970Z,6.20
2019-03-01T15:18:32.391Z,12.47
2019-03-01T15:21:02.310Z,5.50
2019-03-01T15:23:26.665Z,8.60
2019-03-01T15:25:54.214Z,6.20
2019-03-01T15:28:21.764Z,5.20
2019-03-01T15:30:49.291Z,5.80
2019-03-01T15:33:16.849Z,7.50
2019-03-01T15:35:44.675Z,8.67
2019-03-01T15:38:13.210Z,5.23
2019-03-01T15:40:40.835Z,7.10
2019-03-01T15:43:09.141Z,7.03
2019-03-01T15:45:36.637Z,8.60
2019-03-01T15:48:05.203Z,9.83
2019-03-01T15:50:31.157Z,7.63
2019-03-01T15:53:00.950Z,9.63
2019-03-01T15:55:29.726Z,7.17
2019-03-01T15:57:57.330Z,7.83
2019-03-01T16:00:25.490Z,7.87
2019-03-01T16:02:53.204Z,11.17
2019-03-01T16:05:19.756Z,12.00
2019-03-01T16:07:47.289Z,10.23
2019-03-01T16:10:16.709Z,10.23
2019-03-01T16:12:44.243Z,10.03
2019-03-01T16:15:14.014Z,9.55
2019-03-01T16:17:41.586Z,9.33
2019-03-01T16:20:11.582Z,12.13
2019-03-01T16:22:39.115Z,7.57
2019-03-01T16:25:07.279Z,10.70
2019-03-01T16:27:34.267Z,7.63
2019-03-01T16:30:01.825Z,10.07
2019-03-01T16:32:29.395Z,66.73
2019-03-01T16:34:57.910Z,16.63
2019-03-01T16:37:26.144Z,45.00
2019-03-01T16:39:56.206Z,30.47
2019-03-01T16:42:20.662Z,19.53
2019-03-01T16:44:48.223Z,20.10
2019-03-01T16:47:15.754Z,19.00
2019-03-01T16:49:43.524Z,21.27
2019-03-01T16:52:11.085Z,23.80
2019-03-01T16:54:38.639Z,25.37
2019-03-01T16:57:06.175Z,11.50
2019-03-01T16:59:33.732Z,16.70
2019-03-01T17:02:06.088Z,10.87
2019-03-01T17:04:29.029Z,13.33
2019-03-01T17:06:56.560Z,13.60
2019-03-01T17:09:24.122Z,17.73
2019-03-01T17:11:51.656Z,22.10
2019-03-01T17:14:20.211Z,26.83
2019-03-01T17:16:47.748Z,24.90
2019-03-01T17:19:15.316Z,22.43
2019-03-01T17:21:42.854Z,25.30
2019-03-01T17:24:12.234Z,18.53
2019-03-01T17:26:39.092Z,22.07
2019-03-01T17:29:06.409Z,26.53
2019-03-01T17:31:35.008Z,18.60
2019-03-01T17:34:04.430Z,21.43
2019-03-01T17:36:30.925Z,13.30
2019-03-01T17:38:58.470Z,14.20
2019-03-01T17:41:26.040Z,16.53
2019-03-01T17:43:53.581Z,17.33
2019-03-01T17:46:21.140Z,17.10
2019-03-01T17:48:48.672Z,15.87
2019-03-01T17:51:18.183Z,16.07
2019-03-01T17:53:46.476Z,14.27
2019-03-01T17:56:11.414Z,16.53
2019-03-01T17:58:38.935Z,14.10
2019-03-01T18:01:06.534Z,22.57
2019-03-01T18:03:34.072Z,21.10
2019-03-01T18:06:01.635Z,22.37
2019-03-01T18:08:29.162Z,21.40
2019-03-01T18:10:56.698Z,25.67
2019-03-01T18:13:24.261Z,28.73
2019-03-01T18:15:51.809Z,27.47
2019-03-01T18:18:20.387Z,31.90
2019-03-01T18:20:47.927Z,38.73
2019-03-01T18:23:16.249Z,44.73
2019-03-01T18:25:43.784Z,42.50
2019-03-01T18:28:11.348Z,37.60
2019-03-01T18:30:38.883Z,47.67
2019-03-01T18:33:06.411Z,52.67
2019-03-01T18:35:33.980Z,52.97
2019-03-01T18:38:01.525Z,47.87
2019-03-01T18:40:29.102Z,56.03
2019-03-01T18:42:57.400Z,53.30
2019-03-01T18:45:24.968Z,54.97
2019-03-01T18:47:52.513Z,57.83
2019-03-01T18:53:14.665Z,58.80
2019-03-01T18:55:42.215Z,66.87
2019-03-01T18:58:10.590Z,54.37
2019-03-01T19:00:38.219Z,56.43
2019-03-01T19:03:06.569Z,58.40
2019-03-01T19:05:36.551Z,70.50
2019-03-01T19:08:04.837Z,57.53
2019-03-01T19:10:29.351Z,65.60
2019-03-01T19:12:56.903Z,57.10
2019-03-01T19:15:24.467Z,59.40
2019-03-01T19:17:52.022Z,57.33
2019-03-01T19:20:24.088Z,58.00
2019-03-01T19:22:51.619Z,64.00
2019-03-01T19:25:21.655Z,60.97
2019-03-01T19:27:47.081Z,62.90
2019-03-01T19:30:15.257Z,52.27
2019-03-01T19:32:42.786Z,58.43
2019-03-01T19:35:10.345Z,55.63
2019-03-01T19:37:37.894Z,57.60
2019-03-01T19:40:07.847Z,54.63
2019-03-01T19:42:34.167Z,69.90
2019-03-01T19:45:04.660Z,143.60
2019-03-01T19:47:29.015Z,182.47
2019-03-01T19:49:56.571Z,90.50
2019-03-01T19:52:24.103Z,66.70
2019-03-01T19:54:51.658Z,57.40
2019-03-01T19:57:19.242Z,63.03
2019-03-01T19:59:49.642Z,62.60
2019-03-01T20:02:14.388Z,62.17
2019-03-01T20:04:41.947Z,63.57
2019-03-01T20:07:09.514Z,67.43
2019-03-01T20:09:39.762Z,56.20
2019-03-01T20:12:05.418Z,50.70
2019-03-01T20:14:33.834Z,57.93
2019-03-01T20:17:00.592Z,56.03
2019-03-01T20:19:28.147Z,52.50
2019-03-01T20:21:56.451Z,61.33
2019-03-01T20:24:24.007Z,58.67
2019-03-01T20:26:51.567Z,56.40
2019-03-01T20:29:19.097Z,61.40
2019-03-01T20:31:46.666Z,65.20
2019-03-01T20:34:14.971Z,65.23
2019-03-01T20:36:42.511Z,59.30
2019-03-01T20:39:11.747Z,58.50
2019-03-01T20:41:40.093Z,62.00
2019-03-01T20:44:05.361Z,58.93
2019-03-01T20:46:32.891Z,59.63
2019-03-01T20:49:00.641Z,67.53
2019-03-01T20:51:28.055Z,71.40
2019-03-01T20:53:55.619Z,62.60
2019-03-01T20:56:23.152Z,63.97
2019-03-01T20:58:50.711Z,63.23
2019-03-01T21:01:18.243Z,59.53
2019-03-01T21:03:45.775Z,67.97
2019-03-01T21:06:13.330Z,57.77
2019-03-01T21:08:40.865Z,61.53
2019-03-01T21:11:10.187Z,67.33
2019-03-01T21:13:36.025Z,72.17
2019-03-01T21:16:03.563Z,64.13
2019-03-01T21:18:34.162Z,74.90
2019-03-01T21:21:00.235Z,68.03
2019-03-01T21:23:28.485Z,71.30
2019-03-01T21:25:56.054Z,64.07
2019-03-01T21:28:23.658Z,68.60
2019-03-01T21:30:52.377Z,68.27
2019-03-01T21:33:24.022Z,54.60
2019-03-01T21:35:51.233Z,60.43
2019-03-01T21:38:16.201Z,65.87
2019-03-01T21:40:43.942Z,68.80
2019-03-01T21:43:11.511Z,65.00
2019-03-01T21:45:39.156Z,66.67
2019-03-01T21:48:06.770Z,71.30
2019-03-01T21:50:34.308Z,66.20
2019-03-01T21:53:05.497Z,65.70
2019-03-01T21:55:30.495Z,78.47
2019-03-01T21:57:58.038Z,71.43
2019-03-01T22:00:29.485Z,64.73
2019-03-01T22:02:54.791Z,72.07
2019-03-01T22:05:22.371Z,69.30
2019-03-01T22:07:49.913Z,81.00
2019-03-01T22:10:17.492Z,72.40
2019-03-01T22:12:45.048Z,65.43
2019-03-01T22:15:25.422Z,69.68
2019-03-01T22:17:50.035Z,67.93
2019-03-01T22:20:18.347Z,66.43
2019-03-01T22:22:45.915Z,63.27
2019-03-01T22:25:13.456Z,70.87
2019-03-01T22:27:41.032Z,66.63
2019-03-01T22:33:02.300Z,65.20
2019-03-01T22:35:29.858Z,65.37
2019-03-01T22:38:00.892Z,72.60
2019-03-01T22:40:28.070Z,63.95
2019-03-01T22:42:53.664Z,62.27
2019-03-01T22:45:21.860Z,66.07
2019-03-01T22:47:49.828Z,62.63
2019-03-01T22:50:18.547Z,69.13
2019-03-01T22:52:46.934Z,75.77
2019-03-01T22:55:15.798Z,64.37
2019-03-01T22:57:45.222Z,74.50
2019-03-01T23:03:42.103Z,65.43
2019-03-01T23:06:11.735Z,71.37
2019-03-01T23:08:38.812Z,63.90
2019-03-01T23:11:07.021Z,68.17
2019-03-01T23:13:34.764Z,68.43
2019-03-01T23:16:02.492Z,73.13
2019-03-01T23:18:31.263Z,66.87
2019-03-01T23:21:01.087Z,72.40
2019-03-01T23:23:26.890Z,65.30
2019-03-01T23:25:54.682Z,76.83
2019-03-01T23:28:22.254Z,81.97
2019-03-01T23:30:49.944Z,75.90
2019-03-01T23:33:17.666Z,78.27
2019-03-01T23:35:45.613Z,72.37
2019-03-01T23:38:14.985Z,78.67
2019-03-01T23:40:41.568Z,82.00
2019-03-01T23:43:09.142Z,78.23
2019-03-01T23:45:36.695Z,73.90
2019-03-01T23:48:04.255Z,73.43
2019-03-01T23:50:34.894Z,76.07
2019-03-01T23:53:00.099Z,75.30
2019-03-01T23:55:26.978Z,74.67
2019-03-01T23:57:54.512Z,70.87
